sensor_id;sensor_type;location;lat;lon;timestamp;pressure;altitude;pressure_sealevel;temperature;humidity
51239;BME280;38154;47.548;18.828;2023-01-26T00:02:19;99504.50;;;0.90;100.00
51239;BME280;38154;47.548;18.828;2023-01-26T00:04:44;99499.84;;;0.99;100.00
51239;BME280;38154;47.548;18.828;2023-01-26T00:07:10;99496.53;;;1.02;100.00
51239;BME280;38154;47.548;18.828;2023-01-26T00:09:36;99498.87;;;0.97;100.00
51239;BME280;38154;47.548;18.828;2023-01-26T00:12:01;99492.00;;;0.96;100.00
51239;BME280;38154;47.548;18.828;2023-01-26T00:14:27;99486.44;;;0.88;100.00
51239;BME280;38154;47.548;18.828;2023-01-26T00:17:13;99496.56;;;0.85;100.00
51239;BME280;38154;47.548;18.828;2023-01-26T00:19:39;99496.34;;;0.81;100.00
51239;BME280;38154;47.548;18.828;2023-01-26T00:22:04;99490.72;;;0.88;100.00
51239;BME280;38154;47.548;18.828;2023-01-26T00:24:30;99483.00;;;0.88;100.00
51239;BME280;38154;47.548;18.828;2023-01-26T00:26:55;99486.28;;;0.85;100.00
51239;BME280;38154;47.548;18.828;2023-01-26T00:29:21;99477.63;;;0.83;100.00
51239;BME280;38154;47.548;18.828;2023-01-26T00:31:47;99482.66;;;0.98;100.00
51239;BME280;38154;47.548;18.828;2023-01-26T00:34:12;99483.69;;;1.02;100.00
51239;BME280;38154;47.548;18.828;2023-01-26T00:36:38;99482.25;;;1.07;100.00
51239;BME280;38154;47.548;18.828;2023-01-26T00:39:04;99481.53;;;1.09;100.00
51239;BME280;38154;47.548;18.828;2023-01-26T00:41:29;99471.44;;;0.96;100.00
51239;BME280;38154;47.548;18.828;2023-01-26T00:44:13;99479.00;;;0.93;100.00
51239;BME280;38154;47.548;18.828;2023-01-26T00:46:39;99481.72;;;0.96;100.00
51239;BME280;38154;47.548;18.828;2023-01-26T00:49:05;99480.19;;;1.00;100.00
51239;BME280;38154;47.548;18.828;2023-01-26T00:51:30;99477.53;;;0.98;100.00
51239;BME280;38154;47.548;18.828;2023-01-26T00:53:56;99479.50;;;0.86;100.00
51239;BME280;38154;47.548;18.828;2023-01-26T00:56:22;99477.63;;;0.83;100.00
51239;BME280;38154;47.548;18.828;2023-01-26T00:58:47;99477.72;;;0.85;100.00
51239;BME280;38154;47.548;18.828;2023-01-26T01:01:13;99473.63;;;0.88;100.00
51239;BME280;38154;47.548;18.828;2023-01-26T01:03:39;99465.72;;;1.02;100.00
51239;BME280;38154;47.548;18.828;2023-01-26T01:06:04;99463.75;;;0.96;100.00
51239;BME280;38154;47.548;18.828;2023-01-26T01:08:30;99467.84;;;0.92;100.00
51239;BME280;38154;47.548;18.828;2023-01-26T01:11:03;99474.56;;;0.90;100.00
51239;BME280;38154;47.548;18.828;2023-01-26T01:13:29;99462.31;;;0.85;100.00
51239;BME280;38154;47.548;18.828;2023-01-26T01:15:54;99467.37;;;0.83;100.00
51239;BME280;38154;47.548;18.828;2023-01-26T01:18:20;99462.16;;;0.82;100.00
51239;BME280;38154;47.548;18.828;2023-01-26T01:20:46;99459.03;;;0.87;100.00
51239;BME280;38154;47.548;18.828;2023-01-26T01:23:11;99459.66;;;0.83;100.00
51239;BME280;38154;47.548;18.828;2023-01-26T01:25:37;99461.34;;;0.83;100.00
51239;BME280;38154;47.548;18.828;2023-01-26T01:28:03;99459.59;;;0.82;100.00
51239;BME280;38154;47.548;18.828;2023-01-26T01:30:28;99452.53;;;0.78;100.00
51239;BME280;38154;47.548;18.828;2023-01-26T01:32:54;99448.78;;;0.71;100.00
51239;BME280;38154;47.548;18.828;2023-01-26T01:35:20;99446.72;;;0.64;100.00
51239;BME280;38154;47.548;18.828;2023-01-26T01:37:45;99448.38;;;0.63;100.00
51239;BME280;38154;47.548;18.828;2023-01-26T01:40:11;99449.66;;;0.71;100.00
51239;BME280;38154;47.548;18.828;2023-01-26T01:42:37;99442.03;;;0.73;100.00
51239;BME280;38154;47.548;18.828;2023-01-26T01:47:47;99443.31;;;0.81;100.00
51239;BME280;38154;47.548;18.828;2023-01-26T01:50:14;99440.91;;;0.84;100.00
51239;BME280;38154;47.548;18.828;2023-01-26T01:52:41;99443.31;;;0.81;100.00
51239;BME280;38154;47.548;18.828;2023-01-26T01:55:07;99430.97;;;0.74;100.00
51239;BME280;38154;47.548;18.828;2023-01-26T01:57:41;99429.03;;;0.70;100.00
51239;BME280;38154;47.548;18.828;2023-01-26T02:00:11;99432.62;;;0.73;100.00
51239;BME280;38154;47.548;18.828;2023-01-26T02:02:37;99424.59;;;0.84;100.00
51239;BME280;38154;47.548;18.828;2023-01-26T02:05:09;99419.63;;;0.87;100.00
51239;BME280;38154;47.548;18.828;2023-01-26T02:07:40;99418.44;;;0.80;100.00
51239;BME280;38154;47.548;18.828;2023-01-26T02:10:06;99413.97;;;0.76;100.00
51239;BME280;38154;47.548;18.828;2023-01-26T02:12:44;99410.66;;;0.79;100.00
51239;BME280;38154;47.548;18.828;2023-01-26T02:15:10;99414.72;;;0.91;100.00
51239;BME280;38154;47.548;18.828;2023-01-26T02:17:36;99408.78;;;0.92;100.00
51239;BME280;38154;47.548;18.828;2023-01-26T02:20:04;99397.09;;;0.81;100.00
51239;BME280;38154;47.548;18.828;2023-01-26T02:22:37;99391.47;;;0.88;100.00
51239;BME280;38154;47.548;18.828;2023-01-26T02:25:10;99396.25;;;0.99;100.00
51239;BME280;38154;47.548;18.828;2023-01-26T02:27:37;99390.00;;;0.93;100.00
51239;BME280;38154;47.548;18.828;2023-01-26T02:30:03;99390.69;;;1.07;100.00
51239;BME280;38154;47.548;18.828;2023-01-26T02:32:29;99382.31;;;1.11;100.00
51239;BME280;38154;47.548;18.828;2023-01-26T02:34:56;99387.97;;;1.04;100.00
51239;BME280;38154;47.548;18.828;2023-01-26T02:37:22;99374.75;;;0.97;100.00
51239;BME280;38154;47.548;18.828;2023-01-26T02:42:16;99369.75;;;1.00;100.00
51239;BME280;38154;47.548;18.828;2023-01-26T02:45:00;99373.88;;;0.96;100.00
51239;BME280;38154;47.548;18.828;2023-01-26T02:47:26;99368.59;;;0.93;100.00
51239;BME280;38154;47.548;18.828;2023-01-26T02:49:52;99367.47;;;0.88;100.00
51239;BME280;38154;47.548;18.828;2023-01-26T02:52:19;99365.72;;;0.87;100.00
51239;BME280;38154;47.548;18.828;2023-01-26T02:54:45;99354.25;;;0.80;100.00
51239;BME280;38154;47.548;18.828;2023-01-26T02:57:29;99352.50;;;0.79;100.00
51239;BME280;38154;47.548;18.828;2023-01-26T02:59:55;99349.03;;;0.79;100.00
51239;BME280;38154;47.548;18.828;2023-01-26T03:02:21;99350.97;;;0.83;100.00
51239;BME280;38154;47.548;18.828;2023-01-26T03:04:46;99339.84;;;0.82;100.00
51239;BME280;38154;47.548;18.828;2023-01-26T03:07:12;99343.28;;;0.83;100.00
51239;BME280;38154;47.548;18.828;2023-01-26T03:09:38;99343.13;;;0.80;100.00
51239;BME280;38154;47.548;18.828;2023-01-26T03:12:04;99344.87;;;0.81;100.00
51239;BME280;38154;47.548;18.828;2023-01-26T03:14:29;99334.03;;;0.86;100.00
51239;BME280;38154;47.548;18.828;2023-01-26T03:16:55;99328.66;;;0.82;100.00
51239;BME280;38154;47.548;18.828;2023-01-26T03:19:21;99329.84;;;0.88;100.00
51239;BME280;38154;47.548;18.828;2023-01-26T03:22:07;99327.12;;;0.85;100.00
51239;BME280;38154;47.548;18.828;2023-01-26T03:24:51;99325.00;;;0.77;100.00
51239;BME280;38154;47.548;18.828;2023-01-26T03:27:43;99323.16;;;0.74;100.00
51239;BME280;38154;47.548;18.828;2023-01-26T03:30:09;99316.19;;;0.71;100.00
51239;BME280;38154;47.548;18.828;2023-01-26T03:32:35;99321.09;;;0.67;100.00
51239;BME280;38154;47.548;18.828;2023-01-26T03:35:01;99320.22;;;0.66;100.00
51239;BME280;38154;47.548;18.828;2023-01-26T03:37:26;99320.88;;;0.62;100.00
51239;BME280;38154;47.548;18.828;2023-01-26T03:39:52;99322.47;;;0.60;100.00
51239;BME280;38154;47.548;18.828;2023-01-26T03:42:37;99315.09;;;0.66;100.00
51239;BME280;38154;47.548;18.828;2023-01-26T03:45:21;99309.34;;;0.72;100.00
51239;BME280;38154;47.548;18.828;2023-01-26T03:48:06;99300.78;;;0.71;100.00
51239;BME280;38154;47.548;18.828;2023-01-26T03:50:51;99305.91;;;0.71;100.00
51239;BME280;38154;47.548;18.828;2023-01-26T03:53:35;99299.84;;;0.69;100.00
51239;BME280;38154;47.548;18.828;2023-01-26T03:56:19;99299.69;;;0.66;100.00
51239;BME280;38154;47.548;18.828;2023-01-26T03:58:58;99293.44;;;0.61;100.00
51239;BME280;38154;47.548;18.828;2023-01-26T04:01:43;99295.22;;;0.62;100.00
51239;BME280;38154;47.548;18.828;2023-01-26T04:04:27;99301.22;;;0.63;100.00
51239;BME280;38154;47.548;18.828;2023-01-26T04:07:12;99291.75;;;0.62;100.00
51239;BME280;38154;47.548;18.828;2023-01-26T04:09:56;99290.81;;;0.60;100.00
51239;BME280;38154;47.548;18.828;2023-01-26T04:12:22;99284.37;;;0.68;100.00
51239;BME280;38154;47.548;18.828;2023-01-26T04:14:48;99288.62;;;0.67;100.00
51239;BME280;38154;47.548;18.828;2023-01-26T04:17:32;99281.56;;;0.63;100.00
51239;BME280;38154;47.548;18.828;2023-01-26T04:20:16;99281.50;;;0.62;100.00
51239;BME280;38154;47.548;18.828;2023-01-26T04:23:01;99281.34;;;0.59;100.00
51239;BME280;38154;47.548;18.828;2023-01-26T04:25:26;99278.13;;;0.63;100.00
51239;BME280;38154;47.548;18.828;2023-01-26T04:27:52;99275.25;;;0.57;100.00
51239;BME280;38154;47.548;18.828;2023-01-26T04:30:18;99276.00;;;0.54;100.00
51239;BME280;38154;47.548;18.828;2023-01-26T04:32:44;99280.97;;;0.51;100.00
51239;BME280;38154;47.548;18.828;2023-01-26T04:35:10;99273.12;;;0.48;100.00
51239;BME280;38154;47.548;18.828;2023-01-26T04:37:36;99270.63;;;0.49;100.00
51239;BME280;38154;47.548;18.828;2023-01-26T04:40:02;99270.72;;;0.51;100.00
51239;BME280;38154;47.548;18.828;2023-01-26T04:42:28;99267.28;;;0.50;100.00
51239;BME280;38154;47.548;18.828;2023-01-26T04:44:54;99268.87;;;0.48;100.00
51239;BME280;38154;47.548;18.828;2023-01-26T04:47:20;99260.38;;;0.49;100.00
51239;BME280;38154;47.548;18.828;2023-01-26T04:49:45;99262.84;;;0.48;100.00
51239;BME280;38154;47.548;18.828;2023-01-26T04:52:11;99267.13;;;0.47;100.00
51239;BME280;38154;47.548;18.828;2023-01-26T04:54:37;99264.56;;;0.47;100.00
51239;BME280;38154;47.548;18.828;2023-01-26T04:57:03;99270.31;;;0.43;100.00
51239;BME280;38154;47.548;18.828;2023-01-26T04:59:29;99260.28;;;0.48;100.00
51239;BME280;38154;47.548;18.828;2023-01-26T05:01:55;99264.75;;;0.52;100.00
51239;BME280;38154;47.548;18.828;2023-01-26T05:04:20;99262.66;;;0.61;100.00
51239;BME280;38154;47.548;18.828;2023-01-26T05:06:46;99259.63;;;0.52;100.00
51239;BME280;38154;47.548;18.828;2023-01-26T05:09:11;99257.56;;;0.45;100.00
51239;BME280;38154;47.548;18.828;2023-01-26T05:11:37;99252.69;;;0.49;100.00
51239;BME280;38154;47.548;18.828;2023-01-26T05:14:03;99253.19;;;0.60;100.00
51239;BME280;38154;47.548;18.828;2023-01-26T05:16:29;99260.88;;;0.60;100.00
51239;BME280;38154;47.548;18.828;2023-01-26T05:18:54;99259.84;;;0.57;100.00
51239;BME280;38154;47.548;18.828;2023-01-26T05:21:20;99252.59;;;0.48;100.00
51239;BME280;38154;47.548;18.828;2023-01-26T05:23:49;99255.16;;;0.48;100.00
51239;BME280;38154;47.548;18.828;2023-01-26T05:26:14;99253.34;;;0.63;100.00
51239;BME280;38154;47.548;18.828;2023-01-26T05:28:40;99253.34;;;0.63;100.00
51239;BME280;38154;47.548;18.828;2023-01-26T05:31:05;99254.81;;;0.58;100.00
51239;BME280;38154;47.548;18.828;2023-01-26T05:33:31;99256.41;;;0.56;100.00
51239;BME280;38154;47.548;18.828;2023-01-26T05:35:57;99250.78;;;0.63;100.00
51239;BME280;38154;47.548;18.828;2023-01-26T05:38:23;99257.28;;;0.57;100.00
51239;BME280;38154;47.548;18.828;2023-01-26T05:40:50;99254.44;;;0.50;100.00
51239;BME280;38154;47.548;18.828;2023-01-26T05:43:16;99256.03;;;0.48;100.00
51239;BME280;38154;47.548;18.828;2023-01-26T05:45:42;99257.00;;;0.50;100.00
51239;BME280;38154;47.548;18.828;2023-01-26T05:48:08;99256.41;;;0.56;100.00
51239;BME280;38154;47.548;18.828;2023-01-26T05:50:33;99265.06;;;0.58;100.00
51239;BME280;38154;47.548;18.828;2023-01-26T05:52:59;99259.06;;;0.58;100.00
51239;BME280;38154;47.548;18.828;2023-01-26T05:55:27;99259.28;;;0.62;100.00
51239;BME280;38154;47.548;18.828;2023-01-26T05:57:53;99252.31;;;0.60;100.00
51239;BME280;38154;47.548;18.828;2023-01-26T06:00:18;99259.94;;;0.58;100.00
51239;BME280;38154;47.548;18.828;2023-01-26T06:02:44;99265.75;;;0.54;100.00
51239;BME280;38154;47.548;18.828;2023-01-26T06:05:10;99264.84;;;0.53;100.00
51239;BME280;38154;47.548;18.828;2023-01-26T06:07:35;99266.12;;;0.45;100.00
51239;BME280;38154;47.548;18.828;2023-01-26T06:10:01;99269.03;;;0.51;100.00
51239;BME280;38154;47.548;18.828;2023-01-26T06:12:27;99263.25;;;0.55;100.00
51239;BME280;38154;47.548;18.828;2023-01-26T06:14:56;99271.22;;;0.62;100.00
51239;BME280;38154;47.548;18.828;2023-01-26T06:17:22;99266.75;;;0.58;100.00
51239;BME280;38154;47.548;18.828;2023-01-26T06:19:47;99259.06;;;0.58;100.00
51239;BME280;38154;47.548;18.828;2023-01-26T06:22:13;99257.53;;;0.61;100.00
51239;BME280;38154;47.548;18.828;2023-01-26T06:24:39;99256.41;;;0.56;100.00
51239;BME280;38154;47.548;18.828;2023-01-26T06:27:11;99259.78;;;0.55;100.00
51239;BME280;38154;47.548;18.828;2023-01-26T06:29:36;99255.47;;;0.54;100.00
51239;BME280;38154;47.548;18.828;2023-01-26T06:32:02;99249.38;;;0.52;100.00
51239;BME280;38154;47.548;18.828;2023-01-26T06:34:28;99250.69;;;0.62;100.00
51239;BME280;38154;47.548;18.828;2023-01-26T06:36:53;99253.87;;;0.74;100.00
51239;BME280;38154;47.548;18.828;2023-01-26T06:39:19;99256.38;;;0.72;100.00
51239;BME280;38154;47.548;18.828;2023-01-26T06:41:45;99255.69;;;0.77;100.00
51239;BME280;38154;47.548;18.828;2023-01-26T06:44:10;99256.28;;;0.89;100.00
51239;BME280;38154;47.548;18.828;2023-01-26T06:46:36;99254.37;;;1.03;100.00
51239;BME280;38154;47.548;18.828;2023-01-26T06:49:02;99253.97;;;1.13;100.00
51239;BME280;38154;47.548;18.828;2023-01-26T06:53:54;99258.81;;;1.25;100.00
51239;BME280;38154;47.548;18.828;2023-01-26T06:56:20;99256.91;;;1.21;100.00
51239;BME280;38154;47.548;18.828;2023-01-26T06:58:46;99247.37;;;1.00;100.00
51239;BME280;38154;47.548;18.828;2023-01-26T07:01:16;99253.37;;;1.19;100.00
51239;BME280;38154;47.548;18.828;2023-01-26T07:03:42;99246.81;;;1.06;100.00
51239;BME280;38154;47.548;18.828;2023-01-26T07:06:08;99244.16;;;1.04;100.00
51239;BME280;38154;47.548;18.828;2023-01-26T07:08:37;99246.97;;;1.09;100.00
51239;BME280;38154;47.548;18.828;2023-01-26T07:11:03;99247.37;;;1.18;100.00
51239;BME280;38154;47.548;18.828;2023-01-26T07:13:29;99246.37;;;0.97;100.00
51239;BME280;38154;47.548;18.828;2023-01-26T07:16:01;99248.59;;;0.89;100.00
51239;BME280;38154;47.548;18.828;2023-01-26T07:18:27;99247.47;;;0.84;100.00
51239;BME280;38154;47.548;18.828;2023-01-26T07:20:52;99253.34;;;0.81;100.00
51239;BME280;38154;47.548;18.828;2023-01-26T07:23:18;99247.91;;;0.93;100.00
51239;BME280;38154;47.548;18.828;2023-01-26T07:25:44;99242.25;;;1.00;100.00
51239;BME280;38154;47.548;18.828;2023-01-26T07:28:09;99246.97;;;0.91;100.00
51239;BME280;38154;47.548;18.828;2023-01-26T07:30:35;99244.03;;;0.83;100.00
51239;BME280;38154;47.548;18.828;2023-01-26T07:33:01;99240.44;;;0.80;100.00
51239;BME280;38154;47.548;18.828;2023-01-26T07:35:27;99237.34;;;0.87;100.00
51239;BME280;38154;47.548;18.828;2023-01-26T07:37:55;99236.41;;;0.85;100.00
51239;BME280;38154;47.548;18.828;2023-01-26T07:40:23;99238.25;;;0.87;100.00
51239;BME280;38154;47.548;18.828;2023-01-26T07:42:49;99227.22;;;0.90;100.00
51239;BME280;38154;47.548;18.828;2023-01-26T07:45:14;99227.00;;;0.85;100.00
51239;BME280;38154;47.548;18.828;2023-01-26T07:47:42;99222.91;;;0.89;100.00
51239;BME280;38154;47.548;18.828;2023-01-26T07:50:09;99233.28;;;1.10;100.00
51239;BME280;38154;47.548;18.828;2023-01-26T07:52:35;99233.34;;;1.29;100.00
51239;BME280;38154;47.548;18.828;2023-01-26T07:55:01;99232.72;;;1.35;100.00
51239;BME280;38154;47.548;18.828;2023-01-26T07:57:26;99234.41;;;1.35;100.00
51239;BME280;38154;47.548;18.828;2023-01-26T07:59:52;99233.72;;;1.39;100.00
51239;BME280;38154;47.548;18.828;2023-01-26T08:02:18;99229.69;;;1.44;100.00
51239;BME280;38154;47.548;18.828;2023-01-26T08:04:43;99229.34;;;1.36;100.00
51239;BME280;38154;47.548;18.828;2023-01-26T08:07:09;99227.38;;;1.30;100.00
51239;BME280;38154;47.548;18.828;2023-01-26T08:09:35;99229.13;;;1.32;100.00
51239;BME280;38154;47.548;18.828;2023-01-26T08:12:00;99230.75;;;1.29;100.00
51239;BME280;38154;47.548;18.828;2023-01-26T08:14:26;99230.69;;;1.28;100.00
51239;BME280;38154;47.548;18.828;2023-01-26T08:16:52;99225.47;;;1.26;100.00
51239;BME280;38154;47.548;18.828;2023-01-26T08:19:17;99224.78;;;1.30;100.00
51239;BME280;38154;47.548;18.828;2023-01-26T08:21:43;99232.06;;;1.39;100.00
51239;BME280;38154;47.548;18.828;2023-01-26T08:24:10;99227.03;;;1.42;100.00
51239;BME280;38154;47.548;18.828;2023-01-26T08:26:36;99228.34;;;1.33;100.00
51239;BME280;38154;47.548;18.828;2023-01-26T08:29:02;99227.66;;;1.37;100.00
51239;BME280;38154;47.548;18.828;2023-01-26T08:31:28;99236.38;;;1.40;100.00
51239;BME280;38154;47.548;18.828;2023-01-26T08:33:54;99232.19;;;1.42;100.00
51239;BME280;38154;47.548;18.828;2023-01-26T08:36:20;99226.25;;;1.43;100.00
51239;BME280;38154;47.548;18.828;2023-01-26T08:38:46;99230.50;;;1.43;100.00
51239;BME280;38154;47.548;18.828;2023-01-26T08:41:12;99234.50;;;1.36;100.00
51239;BME280;38154;47.548;18.828;2023-01-26T08:43:37;99230.53;;;1.25;100.00
51239;BME280;38154;47.548;18.828;2023-01-26T08:46:03;99236.78;;;1.30;100.00
51239;BME280;38154;47.548;18.828;2023-01-26T08:48:29;99228.81;;;1.43;100.00
51239;BME280;38154;47.548;18.828;2023-01-26T08:50:57;99233.47;;;1.33;100.00
51239;BME280;38154;47.548;18.828;2023-01-26T08:53:23;99230.91;;;1.33;100.00
51239;BME280;38154;47.548;18.828;2023-01-26T08:55:49;99234.88;;;1.26;100.00
51239;BME280;38154;47.548;18.828;2023-01-26T08:58:15;99229.47;;;1.20;100.00
51239;BME280;38154;47.548;18.828;2023-01-26T09:00:41;99240.28;;;1.32;100.00
51239;BME280;38154;47.548;18.828;2023-01-26T09:03:06;99229.44;;;1.38;100.00
51239;BME280;38154;47.548;18.828;2023-01-26T09:05:36;99238.94;;;1.40;100.00
51239;BME280;38154;47.548;18.828;2023-01-26T09:08:03;99226.25;;;1.43;100.00
51239;BME280;38154;47.548;18.828;2023-01-26T09:10:29;99231.53;;;1.46;100.00
51239;BME280;38154;47.548;18.828;2023-01-26T09:12:56;99238.81;;;1.37;100.00
51239;BME280;38154;47.548;18.828;2023-01-26T09:15:21;99237.06;;;1.36;100.00
51239;BME280;38154;47.548;18.828;2023-01-26T09:17:48;99235.56;;;1.41;100.00
51239;BME280;38154;47.548;18.828;2023-01-26T09:20:14;99235.88;;;1.47;100.00
51239;BME280;38154;47.548;18.828;2023-01-26T09:22:39;99228.91;;;1.64;100.00
51239;BME280;38154;47.548;18.828;2023-01-26T09:25:05;99229.06;;;1.69;100.00
51239;BME280;38154;47.548;18.828;2023-01-26T09:27:31;99231.84;;;1.54;100.00
51239;BME280;38154;47.548;18.828;2023-01-26T09:29:57;99233.63;;;1.55;100.00
51239;BME280;38154;47.548;18.828;2023-01-26T09:32:22;99224.34;;;1.59;100.00
51239;BME280;38154;47.548;18.828;2023-01-26T09:34:48;99233.22;;;1.65;100.00
51239;BME280;38154;47.548;18.828;2023-01-26T09:37:14;99229.63;;;1.62;100.00
51239;BME280;38154;47.548;18.828;2023-01-26T09:39:39;99224.81;;;1.50;100.00
51239;BME280;38154;47.548;18.828;2023-01-26T09:47:34;99218.19;;;1.55;100.00
51239;BME280;38154;47.548;18.828;2023-01-26T09:50:20;99215.75;;;1.58;100.00
51239;BME280;38154;47.548;18.828;2023-01-26T09:52:53;99215.50;;;1.72;100.00
51239;BME280;38154;47.548;18.828;2023-01-26T09:55:20;99206.41;;;1.80;100.00
51239;BME280;38154;47.548;18.828;2023-01-26T09:57:47;99206.72;;;1.88;100.00
51239;BME280;38154;47.548;18.828;2023-01-26T10:00:27;99186.06;;;1.84;100.00
51239;BME280;38154;47.548;18.828;2023-01-26T10:05:26;99191.50;;;1.92;100.00
51239;BME280;38154;47.548;18.828;2023-01-26T10:07:53;99180.34;;;1.92;100.00
51239;BME280;38154;47.548;18.828;2023-01-26T10:10:53;99179.47;;;1.91;100.00
51239;BME280;38154;47.548;18.828;2023-01-26T10:13:12;99179.88;;;1.81;100.00
51239;BME280;38154;47.548;18.828;2023-01-26T10:15:38;99171.50;;;1.85;100.00
51239;BME280;38154;47.548;18.828;2023-01-26T10:18:07;99167.63;;;1.95;100.00
51239;BME280;38154;47.548;18.828;2023-01-26T10:20:34;99161.19;;;2.04;100.00
51239;BME280;38154;47.548;18.828;2023-01-26T10:25:37;99156.25;;;2.11;100.00
51239;BME280;38154;47.548;18.828;2023-01-26T10:28:46;99148.28;;;1.83;100.00
51239;BME280;38154;47.548;18.828;2023-01-26T10:30:52;99145.94;;;1.69;100.00
51239;BME280;38154;47.548;18.828;2023-01-26T10:33:29;99143.50;;;1.72;100.00
51239;BME280;38154;47.548;18.828;2023-01-26T10:35:57;99141.69;;;1.69;100.00
51239;BME280;38154;47.548;18.828;2023-01-26T10:40:58;99136.66;;;1.72;100.00
51239;BME280;38154;47.548;18.828;2023-01-26T10:43:24;99130.03;;;1.77;100.00
51239;BME280;38154;47.548;18.828;2023-01-26T10:45:50;99128.97;;;1.72;100.00
51239;BME280;38154;47.548;18.828;2023-01-26T10:48:20;99133.28;;;1.73;100.00
51239;BME280;38154;47.548;18.828;2023-01-26T10:50:47;99128.97;;;1.72;100.00
51239;BME280;38154;47.548;18.828;2023-01-26T10:53:13;99127.66;;;1.82;100.00
51239;BME280;38154;47.548;18.828;2023-01-26T10:55:39;99136.38;;;1.85;100.00
51239;BME280;38154;47.548;18.828;2023-01-26T10:58:13;99140.72;;;1.87;100.00
51239;BME280;38154;47.548;18.828;2023-01-26T11:00:55;99133.22;;;1.72;100.00
51239;BME280;38154;47.548;18.828;2023-01-26T11:03:22;99140.56;;;1.83;100.00
51239;BME280;38154;47.548;18.828;2023-01-26T11:08:46;99127.84;;;1.87;100.00
51239;BME280;38154;47.548;18.828;2023-01-26T11:11:24;99118.16;;;1.81;100.00
51239;BME280;38154;47.548;18.828;2023-01-26T11:14:08;99114.12;;;1.86;100.00
51239;BME280;38154;47.548;18.828;2023-01-26T11:16:34;99108.72;;;1.80;100.00
51239;BME280;38154;47.548;18.828;2023-01-26T11:19:11;99118.75;;;1.74;100.00
51239;BME280;38154;47.548;18.828;2023-01-26T11:21:45;99107.59;;;1.73;100.00
51239;BME280;38154;47.548;18.828;2023-01-26T11:26:50;99100.38;;;1.85;100.00
51239;BME280;38154;47.548;18.828;2023-01-26T11:39:20;99092.97;;;1.72;98.07
51239;BME280;38154;47.548;18.828;2023-01-26T11:41:54;99082.56;;;1.90;99.46
51239;BME280;38154;47.548;18.828;2023-01-26T11:44:29;99086.78;;;1.88;99.00
51239;BME280;38154;47.548;18.828;2023-01-26T11:49:43;99085.41;;;1.96;97.43
51239;BME280;38154;47.548;18.828;2023-01-26T11:57:33;99070.97;;;2.22;94.07
51239;BME280;38154;47.548;18.828;2023-01-26T12:00:20;99069.53;;;2.29;94.51
51239;BME280;38154;47.548;18.828;2023-01-26T12:02:52;99064.09;;;2.21;95.22
51239;BME280;38154;47.548;18.828;2023-01-26T12:05:30;99060.56;;;2.19;94.05
51239;BME280;38154;47.548;18.828;2023-01-26T12:08:06;99048.22;;;2.11;95.82
51239;BME280;38154;47.548;18.828;2023-01-26T12:10:38;99050.88;;;2.12;94.86
51239;BME280;38154;47.548;18.828;2023-01-26T12:15:32;99048.81;;;2.03;94.68
51239;BME280;38154;47.548;18.828;2023-01-26T12:18:00;99042.69;;;2.00;95.82
51239;BME280;38154;47.548;18.828;2023-01-26T12:20:43;99040.16;;;2.01;95.89
51239;BME280;38154;47.548;18.828;2023-01-26T12:25:36;99036.28;;;2.11;96.42
51239;BME280;38154;47.548;18.828;2023-01-26T12:32:58;99035.41;;;2.33;96.92
51239;BME280;38154;47.548;18.828;2023-01-26T12:35:31;99029.06;;;2.25;97.09
51239;BME280;38154;47.548;18.828;2023-01-26T12:38:17;99033.50;;;2.29;99.09
51239;BME280;38154;47.548;18.828;2023-01-26T12:40:48;99023.63;;;2.17;97.59
51239;BME280;38154;47.548;18.828;2023-01-26T12:43:35;99026.53;;;2.04;99.60
51239;BME280;38154;47.548;18.828;2023-01-26T12:46:01;99025.59;;;2.02;98.65
51239;BME280;38154;47.548;18.828;2023-01-26T12:48:32;99015.66;;;1.89;100.00
51239;BME280;38154;47.548;18.828;2023-01-26T12:51:01;99016.75;;;1.73;99.90
51239;BME280;38154;47.548;18.828;2023-01-26T12:53:34;99016.59;;;1.48;100.00
51239;BME280;38154;47.548;18.828;2023-01-26T12:58:33;99016.09;;;1.78;100.00
51239;BME280;38154;47.548;18.828;2023-01-26T13:01:03;99013.00;;;1.87;100.00
51239;BME280;38154;47.548;18.828;2023-01-26T13:03:31;99016.97;;;1.79;100.00
51239;BME280;38154;47.548;18.828;2023-01-26T13:05:59;99023.88;;;1.80;100.00
51239;BME280;38154;47.548;18.828;2023-01-26T13:10:54;99016.44;;;1.65;100.00
51239;BME280;38154;47.548;18.828;2023-01-26T13:13:24;99012.34;;;1.70;100.00
51239;BME280;38154;47.548;18.828;2023-01-26T13:18:47;99015.66;;;1.67;100.00
51239;BME280;38154;47.548;18.828;2023-01-26T13:23:52;99004.09;;;1.56;100.00
51239;BME280;38154;47.548;18.828;2023-01-26T13:28:44;99001.66;;;1.59;100.00
51239;BME280;38154;47.548;18.828;2023-01-26T13:31:10;99000.56;;;1.54;100.00
51239;BME280;38154;47.548;18.828;2023-01-26T13:33:36;99007.84;;;1.43;100.00
51239;BME280;38154;47.548;18.828;2023-01-26T13:36:05;99005.59;;;1.51;100.00
51239;BME280;38154;47.548;18.828;2023-01-26T13:38:39;99003.88;;;1.52;100.00
51239;BME280;38154;47.548;18.828;2023-01-26T13:41:07;98996.91;;;1.49;100.00
51239;BME280;38154;47.548;18.828;2023-01-26T13:46:05;98999.12;;;1.40;100.00
51239;BME280;38154;47.548;18.828;2023-01-26T13:50:58;99001.50;;;1.35;100.00
51239;BME280;38154;47.548;18.828;2023-01-26T13:55:50;98992.47;;;1.45;100.00
51239;BME280;38154;47.548;18.828;2023-01-26T13:58:21;98997.81;;;1.50;100.00
51239;BME280;38154;47.548;18.828;2023-01-26T14:03:25;98998.97;;;1.16;100.00
51239;BME280;38154;47.548;18.828;2023-01-26T14:05:54;98996.28;;;1.13;100.00
51239;BME280;38154;47.548;18.828;2023-01-26T14:08:22;98993.53;;;1.29;100.00
51239;BME280;38154;47.548;18.828;2023-01-26T14:10:48;98995.87;;;1.23;100.00
51239;BME280;38154;47.548;18.828;2023-01-26T14:13:47;98990.88;;;1.26;100.00
51239;BME280;38154;47.548;18.828;2023-01-26T14:16:06;98979.22;;;1.34;100.00